createdAt,value
2022-11-02T00:03:41.764Z,79.99
2022-11-02T00:08:44.501Z,80.00
2022-11-02T00:13:48.408Z,80.20
2022-11-02T00:18:52.692Z,80.24
2022-11-02T00:23:56.080Z,80.07
2022-11-02T00:29:00.330Z,79.56
2022-11-02T00:34:02.989Z,79.73
2022-11-02T00:39:05.531Z,79.73
2022-11-02T00:44:09.445Z,79.59
2022-11-02T00:49:12.239Z,79.65
2022-11-02T00:54:15.028Z,79.79
2022-11-02T00:59:19.592Z,79.68
2022-11-02T01:04:22.318Z,79.93
2022-11-02T01:09:25.027Z,79.71
2022-11-02T01:14:29.010Z,79.89
2022-11-02T01:19:31.659Z,80.40
2022-11-02T01:24:34.201Z,80.08
2022-11-02T01:29:38.104Z,80.29
2022-11-02T01:34:40.718Z,80.49
2022-11-02T01:39:44.128Z,80.58
2022-11-02T01:44:48.396Z,80.67
2022-11-02T01:49:54.885Z,80.61
2022-11-02T01:55:02.348Z,80.71
2022-11-02T02:00:09.384Z,80.85
2022-11-02T02:05:18.669Z,80.79
2022-11-02T02:10:21.730Z,80.72
2022-11-02T02:15:30.713Z,80.61
2022-11-02T02:20:43.282Z,80.86
2022-11-02T02:25:59.503Z,81.09
2022-11-02T02:31:10.195Z,80.89
2022-11-02T02:36:18.068Z,80.83
2022-11-02T02:41:26.478Z,80.76
2022-11-02T02:46:34.895Z,80.45
2022-11-02T02:51:38.431Z,80.25
2022-11-02T02:56:48.108Z,80.37
2022-11-02T03:01:52.363Z,80.20
2022-11-02T03:06:57.513Z,80.18
2022-11-02T03:12:08.881Z,80.16
2022-11-02T03:17:18.059Z,79.96
2022-11-02T03:22:29.661Z,79.96
2022-11-02T03:27:39.610Z,79.77
2022-11-02T03:32:49.861Z,79.82
2022-11-02T03:37:56.808Z,79.98
2022-11-02T03:43:00.860Z,79.77
2022-11-02T03:48:08.085Z,79.77
2022-11-02T03:53:13.734Z,79.81
2022-11-02T03:58:16.780Z,79.77
2022-11-02T04:03:23.885Z,79.78
2022-11-02T04:08:34.217Z,79.76
2022-11-02T04:13:57.368Z,79.50
2022-11-02T04:19:21.482Z,79.60
2022-11-02T04:24:42.203Z,79.59
2022-11-02T04:29:45.079Z,79.56
2022-11-02T04:34:49.425Z,79.74
2022-11-02T04:39:53.048Z,79.62
2022-11-02T04:44:55.804Z,79.57
2022-11-02T04:50:01.367Z,79.53
2022-11-02T04:55:05.548Z,79.24
2022-11-02T05:00:09.743Z,79.53
2022-11-02T05:05:14.721Z,79.64
2022-11-02T05:10:18.503Z,79.45
2022-11-02T05:15:22.863Z,79.23
2022-11-02T05:20:26.976Z,79.35
2022-11-02T05:25:30.208Z,78.99
2022-11-02T05:30:34.015Z,79.10
2022-11-02T05:35:38.159Z,78.96
2022-11-02T05:40:41.667Z,78.76
2022-11-02T05:45:46.483Z,78.65
2022-11-02T05:50:50.612Z,78.57
2022-11-02T05:55:53.588Z,78.51
2022-11-02T06:00:56.294Z,78.41
2022-11-02T06:06:00.788Z,78.47
2022-11-02T06:11:05.980Z,78.26
2022-11-02T06:16:11.099Z,78.29
2022-11-02T06:21:15.763Z,78.11
2022-11-02T06:26:18.366Z,77.99
2022-11-02T06:31:20.907Z,78.12
2022-11-02T06:36:24.912Z,78.04
2022-11-02T06:41:27.481Z,78.07
2022-11-02T06:46:30.075Z,77.86
2022-11-02T06:51:34.008Z,77.63
2022-11-02T06:56:36.600Z,77.49
2022-11-02T07:01:39.455Z,77.48
2022-11-02T07:06:43.618Z,77.53
2022-11-02T07:11:46.286Z,77.65
2022-11-02T07:16:48.880Z,77.50
2022-11-02T07:21:52.883Z,77.43
2022-11-02T07:26:55.701Z,77.26
2022-11-02T07:31:59.396Z,76.97
2022-11-02T07:37:03.366Z,76.81
2022-11-02T07:42:07.148Z,76.44
2022-11-02T07:47:09.776Z,76.27
2022-11-02T07:52:13.707Z,76.13
2022-11-02T07:57:16.377Z,76.08
2022-11-02T08:02:19.008Z,75.95
2022-11-02T08:07:23.186Z,75.89
2022-11-02T08:12:25.897Z,75.54
2022-11-02T08:17:28.525Z,75.43
2022-11-02T08:22:32.483Z,75.42
2022-11-02T08:27:35.306Z,75.33
2022-11-02T08:32:37.920Z,75.41
2022-11-02T08:37:42.141Z,75.57
2022-11-02T08:42:44.719Z,75.58
2022-11-02T08:47:47.484Z,75.27
2022-11-02T08:52:51.387Z,74.91
2022-11-02T08:57:54.973Z,74.96
2022-11-02T09:03:02.432Z,74.92
2022-11-02T09:08:08.612Z,74.70
2022-11-02T09:13:13.010Z,74.94
2022-11-02T09:18:15.647Z,74.65
2022-11-02T09:23:20.715Z,74.23
2022-11-02T09:28:23.291Z,74.17
2022-11-02T09:33:25.916Z,74.24
2022-11-02T09:38:30.031Z,74.05
2022-11-02T09:43:40.528Z,73.56
2022-11-02T09:48:44.692Z,73.47
2022-11-02T09:53:57.244Z,73.31
2022-11-02T09:59:01.988Z,73.08
2022-11-02T10:04:32.868Z,72.93
2022-11-02T10:09:41.699Z,72.56
2022-11-02T10:14:52.955Z,72.08
2022-11-02T10:19:57.420Z,71.88
2022-11-02T10:25:02.881Z,71.74
2022-11-02T10:30:08.146Z,71.31
2022-11-02T10:35:33.848Z,71.33
2022-11-02T10:40:50.876Z,70.55
2022-11-02T10:46:30.545Z,70.56
2022-11-02T10:51:33.145Z,69.82
2022-11-02T10:56:37.510Z,69.44
2022-11-02T11:01:46.226Z,69.09
2022-11-02T11:06:54.264Z,68.54
2022-11-02T11:11:59.973Z,68.07
2022-11-02T11:22:28.553Z,67.04
2022-11-02T11:27:45.254Z,65.85
2022-11-02T11:32:49.550Z,66.31
2022-11-02T11:37:54.161Z,66.05
2022-11-02T11:43:01.585Z,65.10
2022-11-02T11:48:08.850Z,64.42
2022-11-02T11:53:17.456Z,63.86
2022-11-02T11:58:22.724Z,63.33
2022-11-02T12:03:25.342Z,62.91
2022-11-02T12:08:39.507Z,64.97
2022-11-02T12:13:55.447Z,62.67
2022-11-02T12:19:07.391Z,62.08
2022-11-02T12:24:34.776Z,62.77
2022-11-02T12:29:53.559Z,63.64
2022-11-02T12:35:27.697Z,64.76
2022-11-02T12:40:39.614Z,64.41
2022-11-02T12:45:48.192Z,64.89
2022-11-02T12:50:59.148Z,62.96
2022-11-02T12:56:02.707Z,61.69
2022-11-02T13:01:13.855Z,62.51
2022-11-02T13:06:19.649Z,63.10
2022-11-02T13:11:24.537Z,62.94
2022-11-02T13:16:35.124Z,63.52
2022-11-02T13:21:43.953Z,62.86
2022-11-02T13:26:57.256Z,63.75
2022-11-02T13:32:07.465Z,64.52
2022-11-02T13:37:22.357Z,64.33
2022-11-02T13:42:41.450Z,63.84
2022-11-02T13:48:02.728Z,63.42
2022-11-02T13:53:08.754Z,63.34
2022-11-02T13:58:22.207Z,63.08
2022-11-02T14:03:29.172Z,63.01
2022-11-02T14:08:38.105Z,62.73
2022-11-02T14:14:07.186Z,62.75
2022-11-02T14:19:25.899Z,62.83
2022-11-02T14:24:56.624Z,62.75
2022-11-02T14:29:59.697Z,62.53
2022-11-02T14:35:34.454Z,62.60
2022-11-02T14:40:43.216Z,62.59
2022-11-02T14:46:09.732Z,62.35
2022-11-02T14:51:17.810Z,62.33
2022-11-02T14:56:20.628Z,62.31
2022-11-02T15:01:23.987Z,62.25
2022-11-02T15:06:31.081Z,62.31
2022-11-02T15:11:49.365Z,62.32
2022-11-02T15:16:52.804Z,62.40
2022-11-02T15:22:29.971Z,62.80
2022-11-02T15:27:33.383Z,63.10
2022-11-02T15:32:40.133Z,63.72
2022-11-02T15:38:03.555Z,64.15
2022-11-02T15:43:13.609Z,64.09
2022-11-02T15:48:28.658Z,64.23
2022-11-02T15:54:18.967Z,64.39
2022-11-02T15:59:37.695Z,64.65
2022-11-02T16:04:45.311Z,64.48
2022-11-02T16:09:48.533Z,64.41
2022-11-02T16:14:58.296Z,64.38
2022-11-02T16:20:13.102Z,64.46
2022-11-02T16:25:20.207Z,64.63
2022-11-02T16:30:24.591Z,64.61
2022-11-02T16:35:27.526Z,64.54
2022-11-02T16:40:30.482Z,64.55
2022-11-02T16:45:42.065Z,64.56
2022-11-02T16:51:15.624Z,64.71
2022-11-02T16:56:27.468Z,64.61
2022-11-02T17:01:38.859Z,64.63
2022-11-02T17:06:42.335Z,64.59
2022-11-02T17:11:45.438Z,64.63
2022-11-02T17:17:04.759Z,64.92
2022-11-02T17:22:12.960Z,65.15
2022-11-02T17:27:24.717Z,65.56
2022-11-02T17:32:28.802Z,65.95
2022-11-02T17:37:32.524Z,66.58
2022-11-02T17:42:53.988Z,66.63
2022-11-02T17:47:59.060Z,66.04
2022-11-02T17:53:02.774Z,65.70
2022-11-02T17:58:07.491Z,65.74
2022-11-02T18:03:15.724Z,65.95
2022-11-02T18:08:18.443Z,65.85
2022-11-02T18:13:22.531Z,65.39
2022-11-02T18:18:26.470Z,65.66
2022-11-02T18:23:31.263Z,65.82
2022-11-02T18:28:33.940Z,65.80
2022-11-02T18:33:38.023Z,65.72
2022-11-02T18:38:40.795Z,65.68
2022-11-02T18:43:43.490Z,66.00
2022-11-02T18:48:47.645Z,66.14
2022-11-02T18:53:57.253Z,66.42
2022-11-02T18:58:59.918Z,66.23
2022-11-02T19:04:17.423Z,66.37
2022-11-02T19:09:23.010Z,66.54
2022-11-02T19:14:25.804Z,66.95
2022-11-02T19:19:29.860Z,66.86
2022-11-02T19:24:32.437Z,66.70
2022-11-02T19:29:34.999Z,66.32
2022-11-02T19:34:39.096Z,66.27
2022-11-02T19:39:45.854Z,66.55
2022-11-02T19:44:53.467Z,66.56
2022-11-02T19:49:57.388Z,66.54
2022-11-02T19:55:03.170Z,66.65
2022-11-02T20:00:06.629Z,66.66
2022-11-02T20:05:14.586Z,66.95
2022-11-02T20:10:17.264Z,66.94
2022-11-02T20:15:19.881Z,67.18
2022-11-02T20:20:23.988Z,67.37
2022-11-02T20:25:26.604Z,67.40
2022-11-02T20:30:29.199Z,67.08
2022-11-02T20:35:33.124Z,67.58
2022-11-02T20:40:40.979Z,67.53
2022-11-02T20:45:43.885Z,67.52
2022-11-02T20:50:47.756Z,67.55
2022-11-02T20:55:50.433Z,67.66
2022-11-02T21:00:53.860Z,67.56
2022-11-02T21:05:58.095Z,67.66
2022-11-02T21:11:02.240Z,67.56
2022-11-02T21:16:05.193Z,67.65
2022-11-02T21:21:10.611Z,67.59
2022-11-02T21:26:16.814Z,67.66
2022-11-02T21:31:21.368Z,67.62
2022-11-02T21:36:25.412Z,67.88
2022-11-02T21:41:29.363Z,67.67
2022-11-02T21:46:31.988Z,67.79
2022-11-02T21:51:37.151Z,68.00
2022-11-02T21:56:39.968Z,67.95
2022-11-02T22:01:46.710Z,68.25
2022-11-02T22:06:51.206Z,68.22
2022-11-02T22:12:16.043Z,68.19
2022-11-02T22:17:43.760Z,68.29
2022-11-02T22:22:42.521Z,68.23
2022-11-02T22:27:45.072Z,68.40
2022-11-02T22:32:47.669Z,68.45
2022-11-02T22:38:17.588Z,68.43
2022-11-02T22:43:20.179Z,68.67
2022-11-02T22:48:22.728Z,68.75
2022-11-02T22:53:27.652Z,68.88
2022-11-02T22:58:31.241Z,69.36
2022-11-02T23:03:34.202Z,69.26
2022-11-02T23:08:39.783Z,69.42
2022-11-02T23:13:43.642Z,69.35
2022-11-02T23:19:03.835Z,69.33
2022-11-02T23:24:26.201Z,69.55
2022-11-02T23:29:46.176Z,69.38
2022-11-02T23:35:02.765Z,69.47
2022-11-02T23:40:08.239Z,69.44
2022-11-02T23:45:11.580Z,69.54
2022-11-02T23:50:14.311Z,69.60
2022-11-02T23:55:35.641Z,69.94
